»·PEaware :: VRD963 KSAN-KSFO

VRD963 :: KSAN-KSFO

FLIGHT INFORMATION

Flight Status: Arrived
Operator:
Virgin America
More flights by this operator :: More flights under this callsign
Pilot: William B. (10095)
Aircraft: AIRBUS A320
(A320)
More flights by this aircraft type
Origin: KSAN San Diego Intl-Lindbergh
United States
Destination: KSFO San Francisco Intl
United States
More flights between these airports :: More routes between these airports
Route: PADRZ1 IKAYE RZS STOKD SERFR SERFR2
File this flight plan on PilotEdge
Remarks: P3d V3.4 fslabs a320
Altitude:
(Current/Filed)
380ft
Speed:
(Current/Filed)
300kts
Departed: 20-Apr-17 05:44 PM
Arrived: 20-Apr-17 06:56 PM
Distance/Time
Traveled:
388nm/1:11
Distance/Time
To Go:
Arrived

Flight Plot

Page will automatically refresh every two minutes.


Map Options




Map Legend


Flown Route
Filed Route
Departure Airport
Arrival Airport
Navaid (VOR, NDB)
Fix

Horizontal Profiles

Position Reports

Time Latitude Longitude Heading Altitude Ground
Speed
20-Apr-17 17:18 32.732513 -117.203290 223 29ft 0kts
20-Apr-17 17:19 32.732513 -117.203290 223 29ft 0kts
20-Apr-17 17:20 32.732513 -117.203290 223 29ft 0kts
20-Apr-17 17:21 32.732513 -117.203290 223 29ft 0kts
20-Apr-17 17:22 32.732513 -117.203290 223 29ft 0kts
20-Apr-17 17:23 32.732513 -117.203290 223 29ft 0kts
20-Apr-17 17:24 32.732513 -117.203290 223 29ft 0kts
20-Apr-17 17:25 32.732513 -117.203290 223 29ft 0kts
20-Apr-17 17:26 32.732513 -117.203290 223 29ft 0kts
20-Apr-17 17:27 32.732513 -117.203290 223 29ft 0kts
20-Apr-17 17:28 32.732513 -117.203290 223 29ft 0kts
20-Apr-17 17:29 32.732513 -117.203290 223 29ft 0kts
20-Apr-17 17:30 32.732711 -117.203071 222 29ft 2kts
20-Apr-17 17:31 32.733059 -117.202571 327 29ft 2kts
20-Apr-17 17:32 32.732909 -117.202510 344 29ft 0kts
20-Apr-17 17:33 32.732909 -117.202510 344 29ft 0kts
20-Apr-17 17:34 32.732909 -117.202510 344 29ft 0kts
20-Apr-17 17:35 32.732909 -117.202510 344 29ft 0kts
20-Apr-17 17:36 32.734372 -117.202603 14 29ft 0kts
20-Apr-17 17:37 32.735519 -117.201561 127 29ft 5kts
20-Apr-17 17:38 32.734897 -117.199607 107 29ft 6kts
20-Apr-17 17:39 32.734018 -117.195841 106 29ft 17kts
20-Apr-17 17:40 32.732629 -117.190083 106 29ft 18kts
20-Apr-17 17:41 32.731118 -117.183851 105 29ft 20kts
20-Apr-17 17:42 32.729618 -117.177637 105 29ft 10kts
20-Apr-17 17:43 32.729508 -117.176748 73 29ft 0kts
20-Apr-17 17:44 32.730659 -117.177707 285 29ft 31kts
20-Apr-17 17:45 32.745676 -117.221465 306 1612ft 191kts
20-Apr-17 17:46 32.780256 -117.284623 301 3875ft 265kts
20-Apr-17 17:47 32.823866 -117.355499 307 7455ft 271kts
20-Apr-17 17:48 32.870459 -117.427969 307 9956ft 286kts
20-Apr-17 17:49 32.923756 -117.510945 307 11871ft 333kts
20-Apr-17 17:50 32.980608 -117.599616 306 14662ft 343kts
20-Apr-17 17:51 33.039657 -117.691860 306 17113ft 355kts
20-Apr-17 17:52 33.109742 -117.776768 318 19353ft 366kts
20-Apr-17 17:53 33.188884 -117.856697 317 21076ft 378kts
20-Apr-17 17:54 33.263313 -117.944522 313 21107ft 375kts
20-Apr-17 17:55 33.338212 -118.033904 313 22754ft 386kts
20-Apr-17 17:56 33.415455 -118.126497 313 24472ft 397kts
20-Apr-17 17:57 33.493743 -118.220507 313 26188ft 402kts
20-Apr-17 17:58 33.572951 -118.315846 313 27754ft 406kts
20-Apr-17 17:59 33.652988 -118.412525 314 29155ft 411kts
20-Apr-17 18:00 33.726434 -118.501437 314 30328ft 415kts
20-Apr-17 18:01 33.809271 -118.601986 314 31602ft 417kts
20-Apr-17 18:03 33.889537 -118.699656 313 33182ft 408kts
20-Apr-17 18:04 33.968712 -118.796330 313 34564ft 401kts
20-Apr-17 18:05 34.046620 -118.891734 313 35711ft 396kts
20-Apr-17 18:06 34.123469 -118.986071 312 36587ft 393kts
20-Apr-17 18:07 34.184609 -119.094967 299 37282ft 391kts
20-Apr-17 18:08 34.239322 -119.208411 300 37841ft 391kts
20-Apr-17 18:09 34.294327 -119.322175 300 38076ft 395kts
20-Apr-17 18:10 34.349005 -119.435593 300 38078ft 391kts
20-Apr-17 18:11 34.403743 -119.549575 300 38089ft 391kts
20-Apr-17 18:12 34.458190 -119.663290 300 38097ft 391kts
20-Apr-17 18:13 34.515174 -119.775039 309 38100ft 391kts
20-Apr-17 18:14 34.596688 -119.862885 317 38108ft 392kts
20-Apr-17 18:15 34.678549 -119.950224 316 38157ft 391kts
20-Apr-17 18:16 34.760725 -120.037590 316 38157ft 392kts
20-Apr-17 18:17 34.842685 -120.125164 316 38158ft 392kts
20-Apr-17 18:18 34.924595 -120.212937 316 38188ft 392kts
20-Apr-17 18:19 35.006319 -120.300623 316 38239ft 392kts
20-Apr-17 18:20 35.088138 -120.388768 316 38244ft 391kts
20-Apr-17 18:21 35.169656 -120.476852 316 38252ft 392kts
20-Apr-17 18:22 35.251224 -120.565139 316 38253ft 392kts
20-Apr-17 18:23 35.332710 -120.653711 316 38258ft 392kts
20-Apr-17 18:24 35.414210 -120.742427 315 38261ft 392kts
20-Apr-17 18:25 35.496460 -120.830243 319 38266ft 393kts
20-Apr-17 18:26 35.584144 -120.911298 319 38265ft 394kts
20-Apr-17 18:27 35.671293 -120.992486 319 38265ft 393kts
20-Apr-17 18:28 35.758298 -121.073554 319 38277ft 392kts
20-Apr-17 18:29 35.844744 -121.154409 319 37085ft 392kts
20-Apr-17 18:30 35.931623 -121.235831 319 34659ft 391kts
20-Apr-17 18:31 36.019420 -121.318441 319 31372ft 395kts
20-Apr-17 18:32 36.106984 -121.394934 324 28846ft 380kts
20-Apr-17 18:33 36.195498 -121.463672 323 26102ft 371kts
20-Apr-17 18:34 36.281978 -121.531336 323 23432ft 364kts
20-Apr-17 18:35 36.366422 -121.597566 323 21086ft 352kts
20-Apr-17 18:36 36.448305 -121.661972 323 20321ft 348kts
20-Apr-17 18:37 36.524106 -121.721673 323 19541ft 306kts
20-Apr-17 18:38 36.595185 -121.777978 323 17672ft 299kts
20-Apr-17 18:39 36.664326 -121.832706 324 15984ft 290kts
20-Apr-17 18:40 36.731589 -121.886159 325 14352ft 282kts
20-Apr-17 18:41 36.804436 -121.911723 344 13391ft 257kts
20-Apr-17 18:42 36.873468 -121.930945 344 11904ft 251kts
20-Apr-17 18:43 36.944729 -121.950847 345 9603ft 270kts
20-Apr-17 18:44 37.015722 -121.977935 342 8306ft 261kts
20-Apr-17 18:45 37.083504 -122.004377 342 7572ft 252kts
20-Apr-17 18:46 37.150232 -122.030466 342 6779ft 250kts
20-Apr-17 18:47 37.216423 -122.056396 342 5990ft 248kts
20-Apr-17 18:48 37.281724 -122.082033 342 5992ft 232kts
20-Apr-17 18:49 37.345026 -122.107389 342 5939ft 238kts
20-Apr-17 18:50 37.406231 -122.131452 342 4607ft 226kts
20-Apr-17 18:51 37.461725 -122.153224 342 3948ft 194kts
20-Apr-17 18:52 37.512083 -122.167248 345 3501ft 165kts
20-Apr-17 18:53 37.544235 -122.197780 297 2824ft 153kts
20-Apr-17 18:54 37.563260 -122.242978 298 2053ft 136kts
20-Apr-17 18:55 37.580051 -122.282950 298 1366ft 127kts
20-Apr-17 18:56 37.595826 -122.320458 294 739ft 118kts
20-Apr-17 18:57 37.611071 -122.356769 295 112ft 116kts
20-Apr-17 18:58 37.620825 -122.380040 299 27ft 33kts
20-Apr-17 18:59 37.620308 -122.383582 230 27ft 1kts

Navigation Log

Ident Type
Flight plan parsing failed, navigation log unavailable